Time;durP1;ratioP1;P1;durP2;ratioP2;P2;SDS_P1;SDS_P2;PMS_P1;PMS_P2;Temp;Humidity;BMP_temperature;BMP_pressure;BME280_temperature;BME280_humidity;BME280_pressure;Samples;Min_cycle;Max_cycle;Signal;HPM_P1;HPM_P2
2020/12/20 00:01:45;;;;;;;25.60;11.53;;;2.90;99.90;;;;;;4140516;28;20756;-51
2020/12/20 00:03:47;;;;;;;24.77;11.67;;;2.90;99.90;;;;;;4142356;28;20335;-41
2020/12/20 00:05:48;;;;;;;27.10;12.23;;;2.90;99.90;;;;;;4141403;28;20329;-41
2020/12/20 00:07:50;;;;;;;27.70;13.07;;;2.90;99.90;;;;;;4142390;28;20272;-41
2020/12/20 00:09:52;;;;;;;29.13;12.00;;;2.90;99.90;;;;;;4141109;28;20275;-44
2020/12/20 00:11:53;;;;;;;26.73;10.97;;;2.80;99.90;;;;;;4142655;28;20260;-42
2020/12/20 00:13:56;;;;;;;24.43;10.17;;;2.80;99.90;;;;;;4141200;28;20259;-40
2020/12/20 00:15:57;;;;;;;21.57;10.60;;;2.80;99.90;;;;;;4141179;28;20298;-50
2020/12/20 00:17:58;;;;;;;22.03;9.90;;;2.80;99.90;;;;;;4141408;28;20826;-42
2020/12/20 00:19:59;;;;;;;22.97;10.53;;;2.80;99.90;;;;;;4138049;28;20287;-43
2020/12/20 00:22:03;;;;;;;30.77;11.43;;;2.80;99.90;;;;;;4142875;28;20353;-40
2020/12/20 00:24:04;;;;;;;25.70;9.67;;;2.80;99.90;;;;;;4140728;28;20287;-40
2020/12/20 00:26:06;;;;;;;21.33;10.60;;;2.80;99.90;;;;;;4141713;28;20284;-42
2020/12/20 00:28:07;;;;;;;19.27;9.87;;;2.80;99.90;;;;;;4140732;28;20321;-40
2020/12/20 00:30:09;;;;;;;21.03;9.40;;;2.80;99.90;;;;;;4141831;28;20287;-43
2020/12/20 00:32:12;;;;;;;19.43;9.10;;;2.90;99.90;;;;;;4140718;28;20345;-48
2020/12/20 00:34:13;;;;;;;22.13;10.00;;;2.90;99.90;;;;;;4142504;28;20268;-44
2020/12/20 00:36:14;;;;;;;19.23;9.30;;;2.90;99.90;;;;;;4140331;28;20616;-43
2020/12/20 00:38:15;;;;;;;19.00;9.67;;;2.90;99.90;;;;;;4142321;28;20325;-45
2020/12/20 00:40:16;;;;;;;21.53;9.77;;;2.90;99.90;;;;;;4140067;28;20275;-55
2020/12/20 00:42:17;;;;;;;18.70;9.40;;;2.90;99.90;;;;;;4142269;28;20309;-46
2020/12/20 00:44:19;;;;;;;20.00;9.57;;;2.90;99.90;;;;;;4140381;28;20337;-48
2020/12/20 00:46:21;;;;;;;20.50;9.83;;;2.90;99.90;;;;;;4140514;28;20706;-42
2020/12/20 00:48:22;;;;;;;22.83;9.23;;;2.90;99.90;;;;;;4140651;28;20935;-39
2020/12/20 00:50:23;;;;;;;20.00;9.23;;;2.90;99.90;;;;;;4139871;28;20259;-50
2020/12/20 00:52:24;;;;;;;21.63;9.87;;;2.90;99.90;;;;;;4140742;28;20267;-50
2020/12/20 00:54:26;;;;;;;18.77;9.77;;;2.90;99.90;;;;;;4139796;28;20267;-41
2020/12/20 00:56:27;;;;;;;22.13;10.07;;;2.90;99.90;;;;;;4141641;28;20283;-40
2020/12/20 00:58:30;;;;;;;21.90;9.43;;;2.90;99.90;;;;;;4140781;28;20609;-46
2020/12/20 01:00:31;;;;;;;23.20;10.10;;;2.90;99.90;;;;;;4141414;28;20287;-40
2020/12/20 01:02:33;;;;;;;26.10;10.23;;;2.90;99.90;;;;;;4140239;28;20687;-41
2020/12/20 01:04:34;;;;;;;21.10;9.43;;;2.90;99.90;;;;;;4140968;28;20275;-42
2020/12/20 01:06:35;;;;;;;18.30;8.90;;;2.90;99.90;;;;;;4138822;28;20275;-44
2020/12/20 01:08:36;;;;;;;27.47;11.17;;;2.90;99.90;;;;;;4141805;28;20264;-48
2020/12/20 01:10:37;;;;;;;26.73;10.80;;;2.80;99.90;;;;;;4139986;28;20259;-49
2020/12/20 01:12:38;;;;;;;23.13;10.07;;;2.80;99.90;;;;;;4140771;28;21098;-46
2020/12/20 01:14:39;;;;;;;19.43;9.73;;;2.90;99.90;;;;;;4139684;28;20952;-41
2020/12/20 01:16:40;;;;;;;22.43;10.37;;;2.90;99.90;;;;;;4140320;28;20357;-48
2020/12/20 01:18:42;;;;;;;23.00;10.20;;;2.90;99.90;;;;;;4140374;28;20295;-42
2020/12/20 01:20:43;;;;;;;23.27;10.63;;;2.90;99.90;;;;;;4140127;28;20691;-42
2020/12/20 01:22:44;;;;;;;26.37;10.60;;;2.90;99.90;;;;;;4141574;28;20342;-41
2020/12/20 01:24:45;;;;;;;25.27;10.57;;;2.90;99.90;;;;;;4139224;28;20675;-40
2020/12/20 01:26:46;;;;;;;24.77;10.67;;;2.80;99.90;;;;;;4140614;28;20341;-42
2020/12/20 01:28:47;;;;;;;23.47;11.07;;;2.90;99.90;;;;;;4139572;28;20329;-42
2020/12/20 01:30:49;;;;;;;21.93;10.50;;;2.90;99.90;;;;;;4140792;28;20271;-42
2020/12/20 01:32:50;;;;;;;22.07;9.73;;;2.90;99.90;;;;;;4139533;28;20275;-46
2020/12/20 01:34:51;;;;;;;23.60;11.37;;;2.90;99.90;;;;;;4140590;28;20268;-41
2020/12/20 01:36:55;;;;;;;23.30;10.90;;;3.00;99.90;;;;;;4139460;28;20785;-43
2020/12/20 01:38:56;;;;;;;23.07;10.30;;;3.00;99.90;;;;;;4141347;28;20268;-41
2020/12/20 01:40:58;;;;;;;22.83;10.57;;;3.00;99.90;;;;;;4139407;28;20275;-45
2020/12/20 01:42:59;;;;;;;23.30;10.47;;;3.00;99.90;;;;;;4123572;28;20272;-39
2020/12/20 01:45:00;;;;;;;26.67;11.07;;;3.00;99.90;;;;;;4139114;28;20687;-41
2020/12/20 01:47:02;;;;;;;25.33;10.70;;;3.00;99.90;;;;;;4140885;28;20268;-44
2020/12/20 01:49:03;;;;;;;23.53;11.20;;;2.90;99.90;;;;;;4140042;28;20731;-41
2020/12/20 01:51:05;;;;;;;23.83;11.27;;;3.00;99.90;;;;;;4140367;28;20267;-42
2020/12/20 01:53:06;;;;;;;24.70;10.47;;;2.90;99.90;;;;;;4140556;28;20267;-42
2020/12/20 01:55:08;;;;;;;25.50;11.53;;;2.90;99.90;;;;;;4139701;28;20357;-43
2020/12/20 01:57:09;;;;;;;25.20;10.67;;;2.90;99.90;;;;;;4140098;28;20699;-42
2020/12/20 01:59:11;;;;;;;25.27;10.47;;;2.90;99.90;;;;;;4139131;28;20267;-40
2020/12/20 02:01:12;;;;;;;21.93;10.00;;;2.90;99.90;;;;;;4141191;28;20314;-51
2020/12/20 02:03:13;;;;;;;18.97;9.00;;;2.90;99.90;;;;;;4139475;28;20268;-40
2020/12/20 02:05:14;;;;;;;22.83;10.40;;;2.90;99.90;;;;;;4139992;28;20330;-43
2020/12/20 02:07:16;;;;;;;23.27;10.73;;;2.90;99.90;;;;;;4139317;28;20267;-40
2020/12/20 02:09:17;;;;;;;26.23;11.50;;;2.90;99.90;;;;;;4140902;28;20275;-48
2020/12/20 02:11:19;;;;;;;26.10;11.80;;;2.90;99.90;;;;;;4139436;28;21113;-42
2020/12/20 02:13:20;;;;;;;21.80;9.63;;;2.90;99.90;;;;;;4139735;28;20271;-40
2020/12/20 02:15:21;;;;;;;23.50;9.77;;;2.90;99.90;;;;;;4138671;28;20275;-39
2020/12/20 02:17:22;;;;;;;22.27;10.07;;;2.90;99.90;;;;;;4140077;28;20299;-42
2020/12/20 02:19:24;;;;;;;21.93;9.13;;;2.90;99.90;;;;;;4138611;28;20688;-43
2020/12/20 02:21:25;;;;;;;24.37;9.97;;;2.80;99.90;;;;;;4139442;28;20326;-49
2020/12/20 02:23:26;;;;;;;24.23;10.13;;;2.80;99.90;;;;;;4139968;28;20272;-43
2020/12/20 02:25:28;;;;;;;22.87;10.10;;;2.80;99.90;;;;;;4138127;28;20263;-42
2020/12/20 02:27:29;;;;;;;26.33;10.67;;;2.80;99.90;;;;;;4122798;28;20272;-42
2020/12/20 02:29:30;;;;;;;23.10;10.07;;;2.80;99.90;;;;;;4139343;28;20267;-41
2020/12/20 02:31:32;;;;;;;21.40;10.63;;;2.80;99.90;;;;;;4140590;28;20310;-50
2020/12/20 02:33:34;;;;;;;21.10;9.70;;;2.80;99.90;;;;;;4138487;28;20283;-47
2020/12/20 02:35:35;;;;;;;18.13;8.67;;;2.90;99.90;;;;;;4139872;28;20353;-43
2020/12/20 02:37:36;;;;;;;23.20;9.33;;;2.80;99.90;;;;;;4139184;28;20295;-54
2020/12/20 02:39:41;;;;;;;18.93;8.73;;;2.80;99.90;;;;;;4139940;28;20341;-48
2020/12/20 02:41:42;;;;;;;19.57;9.70;;;2.80;99.90;;;;;;4139345;28;20268;-42
2020/12/20 02:43:43;;;;;;;21.63;9.07;;;2.90;99.90;;;;;;4139231;28;20912;-42
2020/12/20 02:45:44;;;;;;;20.20;9.03;;;2.90;99.90;;;;;;4139000;28;20267;-41
2020/12/20 02:47:46;;;;;;;19.50;9.63;;;2.80;99.90;;;;;;4140240;28;20394;-45
2020/12/20 02:49:47;;;;;;;22.23;10.10;;;2.90;99.90;;;;;;4138432;28;20708;-44
2020/12/20 02:51:48;;;;;;;22.90;9.23;;;2.90;99.90;;;;;;4140580;28;20803;-42
2020/12/20 02:53:49;;;;;;;20.13;9.80;;;2.90;99.90;;;;;;4140259;28;20683;-43
2020/12/20 02:55:50;;;;;;;16.83;8.90;;;2.90;99.90;;;;;;4139718;28;20272;-42
2020/12/20 02:57:52;;;;;;;22.40;10.10;;;2.90;99.90;;;;;;4139644;28;20292;-43
2020/12/20 02:59:53;;;;;;;21.30;9.07;;;3.00;99.90;;;;;;4139584;28;20310;-40
2020/12/20 03:01:54;;;;;;;22.20;10.07;;;2.90;99.90;;;;;;4139954;28;20276;-50
2020/12/20 03:03:55;;;;;;;24.33;10.43;;;3.00;99.90;;;;;;4138635;28;20268;-40
2020/12/20 03:05:57;;;;;;;20.27;8.27;;;2.90;99.90;;;;;;4139825;28;20267;-58
2020/12/20 03:07:58;;;;;;;20.10;8.80;;;2.90;99.90;;;;;;4138165;28;20275;-40
2020/12/20 03:09:59;;;;;;;16.83;8.47;;;2.90;99.90;;;;;;4140454;28;20337;-46
2020/12/20 03:12:00;;;;;;;24.03;9.57;;;2.90;99.90;;;;;;4138914;28;20723;-49
2020/12/20 03:14:01;;;;;;;21.60;8.23;;;3.00;99.90;;;;;;4139629;28;20283;-52
2020/12/20 03:16:02;;;;;;;19.77;9.33;;;3.00;99.90;;;;;;4137958;28;20269;-51
2020/12/20 03:18:03;;;;;;;21.60;8.73;;;3.00;99.90;;;;;;4140050;28;20298;-43
2020/12/20 03:20:05;;;;;;;20.93;9.67;;;3.00;99.90;;;;;;4138168;28;20671;-41
2020/12/20 03:22:07;;;;;;;20.90;9.20;;;3.00;99.90;;;;;;4138491;28;20608;-44
2020/12/20 03:24:08;;;;;;;20.07;9.33;;;3.00;99.90;;;;;;4138929;28;20260;-42
2020/12/20 03:26:09;;;;;;;20.43;8.87;;;3.00;99.90;;;;;;4138745;28;20267;-40
2020/12/20 03:28:10;;;;;;;17.80;8.30;;;3.00;99.90;;;;;;4139520;28;20268;-40
2020/12/20 03:30:12;;;;;;;22.90;8.40;;;3.00;99.90;;;;;;4140927;28;21354;-42
2020/12/20 03:32:13;;;;;;;20.77;8.53;;;3.00;99.90;;;;;;4142875;28;20349;-42
2020/12/20 03:34:15;;;;;;;18.90;7.33;;;3.00;99.90;;;;;;4141938;28;20781;-45
2020/12/20 03:36:16;;;;;;;16.80;7.77;;;2.90;99.90;;;;;;4142506;28;20279;-43
2020/12/20 03:38:17;;;;;;;18.23;8.07;;;2.90;99.90;;;;;;4141714;28;20291;-42
2020/12/20 03:40:20;;;;;;;19.23;8.73;;;2.90;99.90;;;;;;4142725;28;20271;-42
2020/12/20 03:42:21;;;;;;;18.97;8.37;;;2.90;99.90;;;;;;4142236;28;20260;-41
2020/12/20 03:44:22;;;;;;;18.80;8.50;;;2.90;99.90;;;;;;4142157;28;20326;-48
2020/12/20 03:46:23;;;;;;;15.47;8.20;;;2.90;99.90;;;;;;4140679;28;20275;-43
2020/12/20 03:48:26;;;;;;;15.10;7.17;;;2.90;99.90;;;;;;4141856;28;20671;-43
2020/12/20 03:50:27;;;;;;;17.27;7.83;;;2.90;99.90;;;;;;4141652;28;20747;-52
2020/12/20 03:52:28;;;;;;;17.37;7.73;;;2.80;99.90;;;;;;4142932;28;20256;-45
2020/12/20 03:54:29;;;;;;;20.07;8.03;;;2.80;99.90;;;;;;4141504;28;20338;-49
2020/12/20 03:56:31;;;;;;;15.43;7.47;;;2.80;99.90;;;;;;4124647;28;20284;-42
2020/12/20 03:58:32;;;;;;;19.23;7.77;;;2.80;99.90;;;;;;4141545;28;20409;-51
2020/12/20 04:00:33;;;;;;;17.03;6.80;;;2.80;99.90;;;;;;4140584;28;20283;-49
2020/12/20 04:02:34;;;;;;;15.37;7.00;;;2.80;99.90;;;;;;4142139;28;20322;-40
2020/12/20 04:04:35;;;;;;;20.03;8.60;;;2.80;99.90;;;;;;4141109;28;20263;-46
2020/12/20 04:06:36;;;;;;;15.63;7.40;;;2.80;99.90;;;;;;4141655;28;21052;-41
2020/12/20 04:08:37;;;;;;;14.07;7.17;;;2.80;99.90;;;;;;4140756;28;20263;-40
2020/12/20 04:10:38;;;;;;;16.90;7.37;;;2.80;99.90;;;;;;4142065;28;20275;-41
2020/12/20 04:12:39;;;;;;;17.30;7.10;;;2.80;99.90;;;;;;4141333;28;20260;-45
2020/12/20 04:14:41;;;;;;;14.60;5.97;;;2.90;99.90;;;;;;4142394;28;20280;-47
2020/12/20 04:16:42;;;;;;;16.37;7.23;;;2.90;99.90;;;;;;4141421;28;20260;-41
2020/12/20 04:18:43;;;;;;;16.67;7.53;;;2.90;99.90;;;;;;4140967;28;20361;-41
2020/12/20 04:20:44;;;;;;;15.57;6.93;;;3.00;99.90;;;;;;4140281;28;20499;-49
2020/12/20 04:22:45;;;;;;;13.70;6.03;;;3.00;99.90;;;;;;4141399;28;20275;-49
2020/12/20 04:24:47;;;;;;;15.07;6.80;;;3.00;99.90;;;;;;4141094;28;20775;-43
2020/12/20 04:26:48;;;;;;;13.87;6.60;;;3.00;99.90;;;;;;4140796;28;20267;-48
2020/12/20 04:28:49;;;;;;;13.47;6.27;;;3.10;99.90;;;;;;4124060;28;20264;-58
2020/12/20 04:30:51;;;;;;;12.00;5.80;;;3.10;99.90;;;;;;4141009;28;20659;-41
2020/12/20 04:32:52;;;;;;;12.67;5.63;;;3.20;99.90;;;;;;4141846;28;20275;-45
2020/12/20 04:34:53;;;;;;;11.93;5.40;;;3.20;99.90;;;;;;4140708;28;20318;-42
2020/12/20 04:36:54;;;;;;;11.63;5.50;;;3.20;99.90;;;;;;4142124;28;20271;-42
2020/12/20 04:38:56;;;;;;;16.13;6.27;;;3.20;99.90;;;;;;4139999;28;20299;-41
2020/12/20 04:40:58;;;;;;;12.73;5.83;;;3.20;99.90;;;;;;4140985;28;20358;-41
2020/12/20 04:43:10;;;;;;;14.03;6.83;;;3.30;99.90;;;;;;4140078;28;20763;-44
2020/12/20 04:45:11;;;;;;;12.47;5.57;;;3.20;99.90;;;;;;4142338;28;20262;-46
2020/12/20 04:47:15;;;;;;;14.37;5.90;;;3.30;99.90;;;;;;4140931;28;20255;-49
2020/12/20 04:49:16;;;;;;;12.23;6.07;;;3.30;99.90;;;;;;4141763;28;20268;-40
2020/12/20 04:51:18;;;;;;;15.33;6.93;;;3.30;99.90;;;;;;4139573;28;20276;-40
2020/12/20 04:53:19;;;;;;;13.37;6.27;;;3.30;99.90;;;;;;4142017;28;20742;-43
2020/12/20 04:55:24;;;;;;;14.03;7.20;;;3.30;99.90;;;;;;4140402;28;21038;-39
2020/12/20 04:57:25;;;;;;;12.63;6.07;;;3.30;99.90;;;;;;4141705;28;20330;-42
2020/12/20 04:59:26;;;;;;;14.77;7.33;;;3.30;99.90;;;;;;4139566;28;20326;-42
2020/12/20 05:01:28;;;;;;;18.37;8.93;;;3.30;99.90;;;;;;4141697;28;20667;-40
2020/12/20 05:03:29;;;;;;;15.33;8.87;;;3.30;99.90;;;;;;4141163;28;20319;-49
2020/12/20 05:05:30;;;;;;;17.37;10.37;;;3.30;99.90;;;;;;4140195;28;20263;-42
2020/12/20 05:07:33;;;;;;;16.47;9.50;;;3.30;99.90;;;;;;4140543;28;20326;-47
2020/12/20 05:09:46;;;;;;;15.23;8.57;;;3.30;99.90;;;;;;4139850;28;20303;-40
2020/12/20 05:11:47;;;;;;;16.93;8.23;;;3.30;99.90;;;;;;4141773;28;20279;-44
2020/12/20 05:13:48;;;;;;;15.97;8.00;;;3.30;99.90;;;;;;4139673;28;20271;-43
2020/12/20 05:15:50;;;;;;;19.80;8.60;;;3.20;99.90;;;;;;4141660;28;20318;-43
2020/12/20 05:18:18;;;;;;;15.47;7.77;;;3.30;99.90;;;;;;4138891;28;20392;-39
2020/12/20 05:20:40;;;;;;;13.50;6.73;;;3.30;99.90;;;;;;4138232;28;20309;-46
2020/12/20 05:22:42;;;;;;;11.27;5.80;;;3.30;99.90;;;;;;4139801;28;20271;-42
2020/12/20 05:24:46;;;;;;;11.70;5.13;;;3.30;99.90;;;;;;4141168;28;20904;-40
2020/12/20 05:26:47;;;;;;;11.27;5.53;;;3.40;99.90;;;;;;4139480;28;20323;-45
2020/12/20 05:28:49;;;;;;;12.07;5.57;;;3.30;99.90;;;;;;4140422;28;20271;-48
2020/12/20 05:30:50;;;;;;;10.70;6.17;;;3.30;99.90;;;;;;4140300;28;20306;-42
2020/12/20 05:32:51;;;;;;;12.63;5.50;;;3.40;99.90;;;;;;4141495;28;20271;-52
2020/12/20 05:35:00;;;;;;;11.00;5.67;;;3.40;99.90;;;;;;4139601;28;20275;-47
2020/12/20 05:37:08;;;;;;;12.17;5.93;;;3.40;99.90;;;;;;4140520;28;20275;-41
2020/12/20 05:39:14;;;;;;;11.80;5.80;;;3.40;99.90;;;;;;4140115;28;20295;-46
2020/12/20 05:41:28;;;;;;;12.47;5.80;;;3.40;99.90;;;;;;4141208;28;20275;-45
2020/12/20 05:43:30;;;;;;;13.13;6.00;;;3.40;99.90;;;;;;4137087;28;20280;-55
2020/12/20 05:45:34;;;;;;;13.00;6.20;;;3.30;99.90;;;;;;4141546;28;20755;-42
2020/12/20 05:47:36;;;;;;;14.33;6.63;;;3.30;99.90;;;;;;4139397;28;20357;-40
2020/12/20 05:49:38;;;;;;;13.20;6.07;;;3.30;99.90;;;;;;4141325;28;20569;-45
2020/12/20 05:51:39;;;;;;;15.90;6.30;;;3.30;99.90;;;;;;4138608;28;20334;-52
2020/12/20 05:53:40;;;;;;;12.70;5.97;;;3.40;99.90;;;;;;4141177;28;20333;-44
2020/12/20 05:55:41;;;;;;;15.23;7.27;;;3.40;99.90;;;;;;4139977;28;20342;-46
2020/12/20 05:57:42;;;;;;;13.13;5.67;;;3.30;99.90;;;;;;4140194;28;20361;-51
2020/12/20 05:59:48;;;;;;;13.50;5.67;;;3.30;99.90;;;;;;4139628;28;20283;-40
2020/12/20 06:01:49;;;;;;;11.97;6.13;;;3.30;99.90;;;;;;4139852;28;20671;-39
2020/12/20 06:03:50;;;;;;;14.00;7.20;;;3.20;99.90;;;;;;4139331;28;20679;-43
2020/12/20 06:05:52;;;;;;;14.77;6.27;;;3.30;99.90;;;;;;4138965;28;20259;-42
2020/12/20 06:07:58;;;;;;;12.73;6.50;;;3.30;99.90;;;;;;4140036;28;20263;-56
2020/12/20 06:10:01;;;;;;;15.63;6.63;;;3.30;99.90;;;;;;4138481;28;20338;-42
2020/12/20 06:12:02;;;;;;;14.73;5.57;;;3.30;99.90;;;;;;4140102;28;20267;-53
2020/12/20 06:14:05;;;;;;;14.10;6.10;;;3.30;99.90;;;;;;4139434;28;20310;-41
2020/12/20 06:16:09;;;;;;;16.57;6.93;;;3.40;99.90;;;;;;4140690;28;20272;-41
2020/12/20 06:18:25;;;;;;;14.03;6.73;;;3.40;99.90;;;;;;4139230;28;20291;-43
2020/12/20 06:20:30;;;;;;;18.57;7.33;;;3.30;99.90;;;;;;4140654;28;20670;-44
2020/12/20 06:22:33;;;;;;;16.90;7.87;;;3.30;99.90;;;;;;4139202;28;20279;-40
2020/12/20 06:24:36;;;;;;;17.20;8.67;;;3.20;99.90;;;;;;4140426;28;20318;-45
2020/12/20 06:26:43;;;;;;;23.80;9.50;;;3.20;99.90;;;;;;4139531;28;20429;-46
2020/12/20 06:28:50;;;;;;;26.90;11.57;;;3.10;99.90;;;;;;4140219;28;20275;-43
2020/12/20 06:30:52;;;;;;;26.40;10.90;;;3.00;99.90;;;;;;4121796;28;20334;-40
2020/12/20 06:32:59;;;;;;;26.90;12.60;;;3.00;99.90;;;;;;4140384;28;20255;-44
2020/12/20 06:35:26;;;;;;;20.40;10.30;;;2.90;99.90;;;;;;4120945;28;20631;-40
2020/12/20 06:37:28;;;;;;;20.63;9.03;;;2.90;99.90;;;;;;4140533;28;20353;-40
2020/12/20 06:39:38;;;;;;;16.77;8.93;;;2.90;99.90;;;;;;4137864;28;20345;-43
2020/12/20 06:41:40;;;;;;;;;;;2.90;99.90;;;;;;4141041;28;20405;-46
2020/12/20 06:43:44;;;;;;;47.13;16.77;;;2.90;99.90;;;;;;4138708;28;20044;-45
2020/12/20 06:45:46;;;;;;;33.10;11.50;;;2.90;99.90;;;;;;4140085;28;20752;-42
2020/12/20 06:47:48;;;;;;;27.40;11.70;;;2.90;99.90;;;;;;4138191;28;20275;-41
2020/12/20 06:49:52;;;;;;;25.13;11.03;;;2.80;99.90;;;;;;4139379;28;20830;-44
2020/12/20 06:52:19;;;;;;;23.33;10.20;;;2.90;99.90;;;;;;4138025;28;20271;-39
2020/12/20 06:54:26;;;;;;;20.43;8.00;;;2.90;99.90;;;;;;4140081;28;20636;-43
2020/12/20 06:56:27;;;;;;;24.27;10.70;;;2.80;99.90;;;;;;4139392;28;20671;-40
2020/12/20 06:58:33;;;;;;;18.53;9.53;;;2.90;99.90;;;;;;4139643;28;20295;-41
2020/12/20 07:00:47;;;;;;;22.63;10.47;;;2.90;99.90;;;;;;4137810;28;20321;-44
2020/12/20 07:02:48;;;;;;;22.47;10.37;;;2.90;99.90;;;;;;4140414;28;21026;-45
2020/12/20 07:04:49;;;;;;;19.63;9.57;;;2.90;99.90;;;;;;4142450;28;20276;-40
2020/12/20 07:07:11;;;;;;;18.00;8.63;;;2.80;99.90;;;;;;4142759;28;20283;-40
2020/12/20 07:09:13;;;;;;;16.70;9.10;;;2.80;99.90;;;;;;4141775;28;20691;-40
2020/12/20 07:11:21;;;;;;;22.83;11.70;;;2.80;99.90;;;;;;4142811;28;20329;-61
2020/12/20 07:13:37;;;;;;;20.70;9.70;;;2.80;99.90;;;;;;4124556;28;20277;-50
2020/12/20 07:15:49;;;;;;;23.27;10.07;;;2.80;99.90;;;;;;4141984;28;20275;-48
2020/12/20 07:17:51;;;;;;;24.80;10.97;;;2.80;99.90;;;;;;4141249;28;20686;-42
2020/12/20 07:20:11;;;;;;;22.50;10.73;;;2.80;99.90;;;;;;4142173;28;20259;-43
2020/12/20 07:22:17;;;;;;;20.45;9.85;;;2.80;99.90;;;;;;4141700;28;20322;-47
2020/12/20 07:24:22;;;;;;;27.90;10.17;;;2.80;99.90;;;;;;4143034;28;20096;-43
2020/12/20 07:26:23;;;;;;;22.60;9.67;;;2.80;99.90;;;;;;4142095;28;20260;-40
2020/12/20 07:28:24;;;;;;;27.83;12.13;;;2.80;99.90;;;;;;4141261;28;20302;-41
2020/12/20 07:30:25;;;;;;;21.97;10.73;;;2.80;99.90;;;;;;4142275;28;20651;-45
2020/12/20 07:32:27;;;;;;;24.87;11.47;;;2.80;99.90;;;;;;4141728;28;20303;-57
2020/12/20 07:34:28;;;;;;;26.67;11.27;;;2.90;99.90;;;;;;4141808;28;20283;-46
2020/12/20 07:36:30;;;;;;;23.20;10.10;;;2.90;99.90;;;;;;4141325;28;20349;-46
2020/12/20 07:38:31;;;;;;;25.70;11.40;;;2.90;99.90;;;;;;4142743;28;20291;-40
2020/12/20 07:40:34;;;;;;;22.63;10.90;;;2.90;99.90;;;;;;4141384;28;20310;-44
2020/12/20 07:42:35;;;;;;;22.77;10.80;;;2.90;99.90;;;;;;4142845;28;20318;-41
2020/12/20 07:44:36;;;;;;;26.53;10.70;;;2.90;99.90;;;;;;4140594;28;20284;-49
2020/12/20 07:46:39;;;;;;;21.47;11.53;;;2.90;99.90;;;;;;4142202;28;20285;-44
2020/12/20 07:48:41;;;;;;;25.67;10.97;;;2.90;99.90;;;;;;4140723;28;20302;-41
2020/12/20 07:50:42;;;;;;;26.50;11.83;;;2.90;99.90;;;;;;4142598;28;20279;-42
2020/12/20 07:52:48;;;;;;;23.47;11.80;;;3.00;99.90;;;;;;4140796;28;20924;-52
2020/12/20 07:54:59;;;;;;;28.23;11.77;;;3.00;99.90;;;;;;4142076;28;20329;-42
2020/12/20 07:57:03;;;;;;;27.97;12.97;;;3.00;99.90;;;;;;4140370;28;20272;-41
2020/12/20 07:59:05;;;;;;;30.10;11.93;;;3.00;99.90;;;;;;4142442;28;20357;-54
2020/12/20 08:01:07;;;;;;;26.57;11.23;;;3.00;99.90;;;;;;4141218;28;20354;-49
2020/12/20 08:03:08;;;;;;;34.07;14.53;;;2.90;99.90;;;;;;4141528;28;20325;-44
2020/12/20 08:05:11;;;;;;;28.07;11.33;;;3.00;99.90;;;;;;4140978;28;20279;-56
2020/12/20 08:07:14;;;;;;;30.47;11.73;;;2.90;99.90;;;;;;4140887;28;20272;-55
2020/12/20 08:09:20;;;;;;;24.43;12.97;;;2.90;99.90;;;;;;4141869;28;20294;-46
2020/12/20 08:11:26;;;;;;;28.33;12.23;;;2.90;99.90;;;;;;4139982;28;20341;-50
2020/12/20 08:13:27;;;;;;;28.13;12.17;;;2.90;99.90;;;;;;4141122;28;20280;-51
2020/12/20 08:15:28;;;;;;;25.03;11.47;;;2.90;99.90;;;;;;4139586;28;20347;-43
2020/12/20 08:17:30;;;;;;;26.37;13.10;;;2.90;99.90;;;;;;4141921;28;20279;-46
2020/12/20 08:19:31;;;;;;;27.50;13.07;;;2.90;99.90;;;;;;4140321;28;20295;-49
2020/12/20 08:21:50;;;;;;;23.47;11.70;;;2.90;99.90;;;;;;4141935;28;20267;-40
2020/12/20 08:23:51;;;;;;;27.60;12.07;;;3.00;99.90;;;;;;4139893;28;20337;-41
2020/12/20 08:25:52;;;;;;;21.97;10.20;;;3.00;99.90;;;;;;4141649;28;20271;-43
2020/12/20 08:27:53;;;;;;;18.83;9.63;;;3.00;99.90;;;;;;4140405;28;20333;-49
2020/12/20 08:30:04;;;;;;;21.67;9.83;;;3.00;99.90;;;;;;4142003;28;20267;-50
2020/12/20 08:32:26;;;;;;;19.77;10.07;;;3.10;99.90;;;;;;4139533;28;20346;-54
2020/12/20 08:34:27;;;;;;;22.87;9.97;;;3.10;99.90;;;;;;4141209;28;20366;-46
2020/12/20 08:36:28;;;;;;;20.90;9.83;;;3.10;99.90;;;;;;4139796;28;20272;-52
2020/12/20 08:38:29;;;;;;;24.80;11.37;;;3.10;99.90;;;;;;4141125;28;20346;-48
2020/12/20 08:40:32;;;;;;;21.67;9.27;;;3.20;99.90;;;;;;4140219;28;20702;-41
2020/12/20 08:42:34;;;;;;;19.20;9.47;;;3.20;99.90;;;;;;4141131;28;20287;-47
2020/12/20 08:44:36;;;;;;;24.70;11.17;;;3.20;99.90;;;;;;4139544;28;20279;-43
2020/12/20 08:46:40;;;;;;;23.97;10.47;;;3.20;99.90;;;;;;4122868;28;20338;-45
2020/12/20 08:48:41;;;;;;;25.40;11.80;;;3.20;99.90;;;;;;4140486;28;20848;-53
2020/12/20 08:50:42;;;;;;;26.33;10.53;;;3.30;99.90;;;;;;4139952;28;20267;-46
2020/12/20 08:52:43;;;;;;;25.50;11.40;;;3.30;99.90;;;;;;4140416;28;20752;-54
2020/12/20 08:54:49;;;;;;;24.23;9.97;;;3.30;99.90;;;;;;4140059;28;20271;-49
2020/12/20 08:57:03;;;;;;;19.53;9.57;;;3.30;99.90;;;;;;4140465;28;20321;-47
2020/12/20 08:59:05;;;;;;;24.77;11.33;;;3.30;99.90;;;;;;4140512;28;20613;-62
2020/12/20 09:01:06;;;;;;;24.80;10.73;;;3.30;99.90;;;;;;4123403;28;20343;-45
2020/12/20 09:03:07;;;;;;;26.60;11.80;;;3.30;99.90;;;;;;4139152;28;20322;-48
2020/12/20 09:05:13;;;;;;;26.50;11.87;;;3.40;99.90;;;;;;4141341;28;20358;-44
2020/12/20 09:07:15;;;;;;;25.03;11.77;;;3.40;99.90;;;;;;4139225;28;20301;-51
2020/12/20 09:09:16;;;;;;;28.70;12.40;;;3.40;99.90;;;;;;4140711;28;20330;-44
2020/12/20 09:11:26;;;;;;;28.23;13.30;;;3.40;99.90;;;;;;4139438;28;20829;-44
2020/12/20 09:13:27;;;;;;;23.00;11.23;;;3.40;99.90;;;;;;4140985;28;20275;-46
2020/12/20 09:15:28;;;;;;;25.13;11.87;;;3.50;99.90;;;;;;4138499;28;20033;-45
2020/12/20 09:17:35;;;;;;;27.00;12.60;;;3.50;99.90;;;;;;4140537;28;20314;-42
2020/12/20 09:19:36;;;;;;;42.60;22.47;;;3.50;99.90;;;;;;4139644;28;20297;-47
2020/12/20 09:21:37;;;;;;;49.50;26.50;;;3.50;99.90;;;;;;4141342;28;20605;-45
2020/12/20 09:23:38;;;;;;;48.63;26.20;;;3.50;99.90;;;;;;4138884;28;20271;-40
2020/12/20 09:25:44;;;;;;;40.97;20.83;;;3.50;99.90;;;;;;4140587;28;20353;-45
2020/12/20 09:27:54;;;;;;;36.00;18.63;;;3.40;99.90;;;;;;4138527;28;20272;-45
2020/12/20 09:29:55;;;;;;;43.63;22.03;;;3.50;99.90;;;;;;4140857;28;20290;-43
2020/12/20 09:31:56;;;;;;;33.50;15.60;;;3.50;99.90;;;;;;4138978;28;20345;-43
2020/12/20 09:34:00;;;;;;;37.17;17.00;;;3.50;99.90;;;;;;4139352;28;20275;-49
2020/12/20 09:36:11;;;;;;;26.27;13.40;;;3.50;99.90;;;;;;4139125;28;20318;-51
2020/12/20 09:38:13;;;;;;;26.83;13.33;;;3.50;99.90;;;;;;4139369;28;20287;-44
2020/12/20 09:40:14;;;;;;;20.43;10.70;;;3.50;99.90;;;;;;4139285;28;21564;-55
2020/12/20 09:42:15;;;;;;;30.60;12.77;;;3.60;99.90;;;;;;4139302;28;20271;-59
2020/12/20 09:44:16;;;;;;;26.10;11.97;;;3.50;99.90;;;;;;4140299;28;20345;-50
2020/12/20 09:46:33;;;;;;;29.37;13.87;;;3.60;99.90;;;;;;4139271;28;20260;-44
2020/12/20 09:48:34;;;;;;;26.47;13.87;;;3.60;99.90;;;;;;4140220;28;20627;-51
2020/12/20 09:50:35;;;;;;;38.83;16.57;;;3.60;99.90;;;;;;4138950;28;20322;-47
2020/12/20 09:52:37;;;;;;;39.93;20.70;;;3.60;99.90;;;;;;4140363;28;20271;-44
2020/12/20 09:54:38;;;;;;;36.20;18.67;;;3.70;99.90;;;;;;4121327;28;20268;-51
2020/12/20 09:56:42;;;;;;;31.37;16.53;;;3.70;99.90;;;;;;4140564;28;21052;-48
2020/12/20 09:58:44;;;;;;;31.80;14.97;;;3.70;99.90;;;;;;4139772;28;20361;-45
2020/12/20 10:00:46;;;;;;;23.27;11.43;;;3.70;99.90;;;;;;4139973;28;20272;-43
2020/12/20 10:02:47;;;;;;;25.10;11.40;;;3.80;99.90;;;;;;4139065;28;20365;-43
2020/12/20 10:04:48;;;;;;;31.97;12.23;;;3.80;99.90;;;;;;4140212;28;20704;-49
2020/12/20 10:06:51;;;;;;;23.10;10.87;;;3.70;99.90;;;;;;4138411;28;20337;-48
2020/12/20 10:08:52;;;;;;;21.63;10.43;;;3.70;99.90;;;;;;4139583;28;20350;-51
2020/12/20 10:10:54;;;;;;;20.80;11.17;;;3.70;99.90;;;;;;4137766;28;20807;-58
2020/12/20 10:12:56;;;;;;;22.07;10.13;;;3.70;99.90;;;;;;4139517;28;20732;-45
2020/12/20 10:14:58;;;;;;;20.03;10.17;;;3.70;99.90;;;;;;4138908;28;20612;-59
2020/12/20 10:17:00;;;;;;;23.37;10.07;;;3.70;99.90;;;;;;4138416;28;20279;-43
2020/12/20 10:19:01;;;;;;;20.23;10.30;;;3.70;99.90;;;;;;4138804;28;20303;-46
2020/12/20 10:21:02;;;;;;;26.67;11.60;;;3.70;99.90;;;;;;4138049;28;20286;-53
2020/12/20 10:23:03;;;;;;;20.10;11.17;;;3.80;99.90;;;;;;4140101;28;20342;-43
2020/12/20 10:25:07;;;;;;;24.73;10.57;;;3.80;99.90;;;;;;4138763;28;20383;-44
2020/12/20 10:27:08;;;;;;;24.10;12.57;;;3.80;99.90;;;;;;4140113;28;20294;-43
2020/12/20 10:29:11;;;;;;;26.77;14.27;;;3.80;99.90;;;;;;4138437;28;20737;-45
2020/12/20 10:31:18;;;;;;;23.60;11.33;;;3.80;99.90;;;;;;4139623;28;20279;-42
2020/12/20 10:33:19;;;;;;;19.90;11.23;;;3.80;99.90;;;;;;4138518;28;20283;-44
2020/12/20 10:35:23;;;;;;;17.10;9.37;;;3.80;99.90;;;;;;4139947;28;20271;-50
2020/12/20 10:37:24;;;;;;;17.77;8.07;;;3.80;99.90;;;;;;4137347;28;20291;-42